Time;durP1;ratioP1;P1;durP2;ratioP2;P2;SDS_P1;SDS_P2;PMS_P1;PMS_P2;Temp;Humidity;BMP_temperature;BMP_pressure;BME280_temperature;BME280_humidity;BME280_pressure;Samples;Min_cycle;Max_cycle;Signal;HPM_P1;HPM_P2
2023/06/13 00:00:10;;;;;;;7.43;3.85;;;;;;;20.19;42.44;99121.00;344731;28;4755;-67
2023/06/13 00:00:23;;;;;;;7.32;3.70;;;;;;;20.19;41.53;99116.56;345937;28;1906;-68
2023/06/13 00:00:38;;;;;;;4.68;3.60;;;;;;;20.20;41.53;99128.75;346038;28;1047;-68
2023/06/13 00:00:51;;;;;;;4.80;3.63;;;;;;;20.21;42.12;99125.19;345697;28;1278;-67
2023/06/13 00:01:04;;;;;;;5.10;3.70;;;;;;;20.21;42.16;99125.19;346962;28;1176;-68
2023/06/13 00:01:16;;;;;;;4.57;3.58;;;;;;;20.17;43.01;99121.13;347270;28;1065;-68
2023/06/13 00:01:30;;;;;;;4.07;3.40;;;;;;;20.16;42.33;99122.06;347238;28;1057;-70
2023/06/13 00:01:48;;;;;;;4.40;3.40;;;;;;;20.16;42.35;99119.41;347348;28;1368;-68
2023/06/13 00:02:00;;;;;;;6.30;3.60;;;;;;;20.14;42.19;99124.84;348716;28;3046;-67
2023/06/13 00:02:13;;;;;;;5.95;3.53;;;;;;;20.08;41.44;99127.97;348475;28;1198;-67
2023/06/13 00:02:25;;;;;;;4.43;3.40;;;;;;;20.09;42.80;99121.72;348754;28;1019;-67
2023/06/13 00:02:37;;;;;;;4.60;3.55;;;;;;;20.11;42.01;99118.97;348928;28;1086;-68
2023/06/13 00:02:50;;;;;;;4.68;3.40;;;;;;;20.12;41.90;99123.28;348906;28;1017;-67
2023/06/13 00:03:02;;;;;;;5.13;3.50;;;;;;;20.09;42.29;99115.63;349032;28;1039;-68
2023/06/13 00:03:14;;;;;;;5.70;3.30;;;;;;;20.09;42.07;99120.91;349008;28;1038;-67
2023/06/13 00:03:29;;;;;;;5.28;3.20;;;;;;;20.10;41.79;99117.28;348878;28;1236;-67
2023/06/13 00:03:41;;;;;;;4.15;3.30;;;;;;;20.10;42.02;99114.66;348938;28;1465;-68
2023/06/13 00:03:54;;;;;;;4.38;3.40;;;;;;;20.12;42.27;99123.28;349509;28;1102;-68
2023/06/13 00:04:06;;;;;;;4.82;3.35;;;;;;;20.09;42.20;99116.44;348993;28;1096;-68
2023/06/13 00:04:23;;;;;;;4.65;3.40;;;;;;;20.11;42.13;99111.06;349593;28;789;-68
2023/06/13 00:04:35;;;;;;;4.80;3.42;;;;;;;20.13;42.30;99117.06;347819;28;1060;-67
2023/06/13 00:04:48;;;;;;;4.53;3.30;;;;;;;20.12;42.06;99115.34;346448;28;1106;-67
2023/06/13 00:05:03;;;;;;;5.07;3.47;;;;;;;20.13;41.89;99117.06;346574;28;1595;-68
2023/06/13 00:05:21;;;;;;;5.25;3.40;;;;;;;20.10;42.54;99117.28;347748;28;1988;-68
2023/06/13 00:05:33;;;;;;;5.05;3.45;;;;;;;20.12;42.59;99118.00;347494;28;1287;-68
2023/06/13 00:05:46;;;;;;;4.82;3.63;;;;;;;20.14;42.12;99114.28;347832;28;1023;-68
2023/06/13 00:06:01;;;;;;;4.90;3.50;;;;;;;20.18;41.62;99120.13;347622;28;1087;-68
2023/06/13 00:06:15;;;;;;;4.65;3.40;;;;;;;20.19;41.61;99118.34;347268;28;5731;-68
2023/06/13 00:06:29;;;;;;;5.78;3.40;;;;;;;20.20;41.10;99123.50;347813;28;1083;-68
2023/06/13 00:06:42;;;;;;;6.90;3.38;;;;;;;20.21;41.10;99122.53;347273;28;1399;-67
2023/06/13 00:06:54;;;;;;;5.90;3.30;;;;;;;20.21;41.24;99124.34;349128;28;1382;-68
2023/06/13 00:07:09;;;;;;;5.38;3.13;;;;;;;20.21;41.56;99116.44;349235;28;1045;-68
2023/06/13 00:07:22;;;;;;;4.85;3.03;;;;;;;20.22;41.00;99115.44;348139;28;795;-67
2023/06/13 00:07:37;;;;;;;3.72;3.13;;;;;;;20.20;41.46;99123.50;347741;28;1035;-67
2023/06/13 00:07:50;;;;;;;3.78;3.30;;;;;;;20.20;42.07;99120.03;347393;28;1040;-67
2023/06/13 00:08:03;;;;;;;4.13;3.50;;;;;;;20.18;42.24;99114.84;347539;28;1147;-68
2023/06/13 00:08:21;;;;;;;5.93;3.40;;;;;;;20.17;41.60;99118.47;347482;28;1519;-68
2023/06/13 00:08:33;;;;;;;7.05;3.60;;;;;;;20.18;41.35;99119.31;347251;28;1275;-68
2023/06/13 00:08:45;;;;;;;4.95;3.58;;;;;;;20.19;41.17;99116.56;347705;28;1091;-68
2023/06/13 00:08:57;;;;;;;4.28;3.50;;;;;;;20.22;41.53;99121.59;347777;28;1257;-68
2023/06/13 00:09:09;;;;;;;4.28;3.67;;;;;;;20.20;41.52;99118.22;347662;28;1063;-67
2023/06/13 00:09:22;;;;;;;4.80;3.80;;;;;;;20.20;41.12;99118.22;348238;28;1054;-67
2023/06/13 00:09:35;;;;;;;5.22;3.60;;;;;;;20.19;41.23;99115.72;348790;28;1155;-67
2023/06/13 00:09:47;;;;;;;4.82;3.28;;;;;;;20.18;41.16;99112.22;349060;28;1381;-68
2023/06/13 00:09:59;;;;;;;6.72;3.30;;;;;;;20.16;41.54;99116.78;349048;28;1126;-67
2023/06/13 00:10:11;;;;;;;6.82;3.35;;;;;;;20.17;41.12;99121.13;349237;28;1285;-68
2023/06/13 00:10:25;;;;;;;5.75;3.60;;;;;;;20.14;41.24;99110.78;350478;28;1326;-67
2023/06/13 00:10:37;;;;;;;4.93;3.60;;;;;;;20.13;41.87;99122.31;350414;28;1026;-67
2023/06/13 00:10:50;;;;;;;4.45;3.25;;;;;;;20.13;41.29;99117.88;350301;28;1046;-67
2023/06/13 00:11:02;;;;;;;4.45;3.30;;;;;;;20.12;41.16;99115.34;350392;28;1061;-67
2023/06/13 00:11:14;;;;;;;4.50;3.40;;;;;;;20.14;41.82;99123.97;350327;28;1117;-67
2023/06/13 00:11:26;;;;;;;5.55;3.42;;;;;;;20.14;42.10;99123.97;350396;28;1513;-68
2023/06/13 00:11:38;;;;;;;5.10;3.20;;;;;;;20.14;42.21;99113.44;350652;28;1195;-67
2023/06/13 00:11:53;;;;;;;5.07;3.20;;;;;;;20.15;41.86;99115.94;350615;28;1061;-67
2023/06/13 00:12:05;;;;;;;5.60;3.38;;;;;;;20.16;41.17;99116.78;350268;28;1061;-67
2023/06/13 00:12:20;;;;;;;5.35;3.35;;;;;;;20.16;42.02;99116.78;350166;28;1224;-68
2023/06/13 00:12:34;;;;;;;4.22;3.33;;;;;;;20.17;42.10;99118.47;350514;28;1301;-67
2023/06/13 00:12:49;;;;;;;4.43;3.40;;;;;;;20.17;41.80;99115.00;350176;28;1321;-68
2023/06/13 00:13:02;;;;;;;4.53;3.35;;;;;;;20.15;42.09;99115.13;350354;28;965;-67
2023/06/13 00:13:15;;;;;;;4.68;3.40;;;;;;;20.16;42.08;99116.78;348947;28;1069;-67
2023/06/13 00:13:27;;;;;;;4.28;3.38;;;;;;;20.14;42.58;99122.22;349285;28;1176;-68
2023/06/13 00:13:40;;;;;;;4.18;3.45;;;;;;;20.14;41.92;99124.84;349742;28;1125;-67
2023/06/13 00:13:52;;;;;;;3.88;3.40;;;;;;;20.15;41.58;99115.13;350278;28;1325;-68
2023/06/13 00:14:04;;;;;;;3.63;3.20;;;;;;;20.16;41.49;99119.41;350406;28;1033;-68
2023/06/13 00:14:18;;;;;;;3.50;3.10;;;;;;;20.17;41.04;99122.94;350436;28;1241;-67
2023/06/13 00:14:30;;;;;;;4.22;3.17;;;;;;;20.14;41.44;99119.56;350463;28;1072;-67
2023/06/13 00:14:43;;;;;;;4.32;3.30;;;;;;;20.17;41.28;99118.47;350244;28;1503;-68
2023/06/13 00:14:56;;;;;;;4.43;3.40;;;;;;;20.18;41.33;99125.41;350417;28;1325;-68
2023/06/13 00:15:10;;;;;;;5.20;3.20;;;;;;;20.16;40.91;99116.78;350261;28;1105;-68
2023/06/13 00:15:23;;;;;;;5.05;3.15;;;;;;;20.15;41.24;99113.31;350360;28;1171;-67
2023/06/13 00:15:35;;;;;;;4.65;3.15;;;;;;;20.17;41.34;99118.47;350441;28;1089;-67
2023/06/13 00:15:51;;;;;;;4.50;3.30;;;;;;;20.17;41.47;99115.84;350405;28;1050;-67
2023/06/13 00:16:03;;;;;;;4.63;3.30;;;;;;;20.19;41.40;99115.72;350012;28;1091;-67
2023/06/13 00:16:15;;;;;;;4.60;3.25;;;;;;;20.18;42.17;99120.13;350412;28;1042;-67
2023/06/13 00:16:27;;;;;;;4.43;3.20;;;;;;;20.15;41.33;99121.22;349906;28;1554;-68
2023/06/13 00:16:39;;;;;;;4.50;3.30;;;;;;;20.19;41.01;99123.63;350395;28;1061;-68
2023/06/13 00:16:51;;;;;;;4.78;3.50;;;;;;;20.19;41.09;99119.19;350178;28;1035;-68
2023/06/13 00:17:07;;;;;;;4.53;3.47;;;;;;;20.20;41.04;99117.38;350348;28;1506;-68
2023/06/13 00:17:22;;;;;;;5.13;3.35;;;;;;;20.19;41.79;99121.81;350078;28;1249;-67
2023/06/13 00:17:36;;;;;;;5.50;3.22;;;;;;;20.16;41.42;99116.78;350362;28;1101;-67
2023/06/13 00:17:49;;;;;;;4.47;3.25;;;;;;;20.13;42.42;99122.31;350466;28;912;-67
2023/06/13 00:18:01;;;;;;;4.95;3.55;;;;;;;20.09;42.53;99120.91;350207;28;1337;-67
2023/06/13 00:18:15;;;;;;;6.22;3.60;;;;;;;20.10;41.78;99117.28;348993;28;1204;-68
2023/06/13 00:18:31;;;;;;;5.40;3.20;;;;;;;20.12;41.66;99120.63;349022;28;1252;-67
2023/06/13 00:18:45;;;;;;;5.90;3.33;;;;;;;20.12;41.05;99115.34;348648;28;1290;-68
2023/06/13 00:18:58;;;;;;;6.03;3.50;;;;;;;20.12;41.83;99120.63;347319;28;1882;-68
2023/06/13 00:19:11;;;;;;;5.22;3.35;;;;;;;20.11;41.46;99119.81;347698;28;1184;-67
2023/06/13 00:19:24;;;;;;;5.68;3.40;;;;;;;20.11;41.58;99118.97;347682;28;1148;-67
2023/06/13 00:19:36;;;;;;;5.10;3.53;;;;;;;20.10;42.01;99119.91;347992;28;1335;-68
2023/06/13 00:19:48;;;;;;;4.88;3.55;;;;;;;20.08;42.38;99116.56;348709;28;1911;-68
2023/06/13 00:20:00;;;;;;;5.15;3.58;;;;;;;20.09;41.64;99123.53;348824;28;1253;-67
2023/06/13 00:20:12;;;;;;;4.78;3.45;;;;;;;20.08;42.09;99124.47;349282;28;1274;-67
2023/06/13 00:20:26;;;;;;;3.67;3.10;;;;;;;20.08;41.71;99121.84;350105;28;1273;-68
2023/06/13 00:20:40;;;;;;;4.20;3.20;;;;;;;20.07;41.45;99123.66;349910;28;1150;-68
2023/06/13 00:20:54;;;;;;;5.25;3.47;;;;;;;20.07;40.79;99122.81;348990;28;1249;-67
2023/06/13 00:21:09;;;;;;;5.32;3.10;;;;;;;20.09;41.26;99120.91;348744;28;1179;-67
2023/06/13 00:21:24;;;;;;;5.18;2.90;;;;;;;20.09;41.08;99126.16;348135;28;1390;-67
2023/06/13 00:21:41;;;;;;;5.00;3.30;;;;;;;20.07;41.86;99120.19;349005;28;1350;-67
2023/06/13 00:21:56;;;;;;;5.32;3.60;;;;;;;20.09;41.44;99124.38;348852;28;1034;-67
2023/06/13 00:22:10;;;;;;;4.43;3.35;;;;;;;20.10;41.21;99122.56;348519;28;1910;-68
2023/06/13 00:22:24;;;;;;;3.70;3.20;;;;;;;20.11;41.09;99124.25;348789;28;1254;-67
2023/06/13 00:22:36;;;;;;;4.85;3.20;;;;;;;20.10;40.70;99119.91;348680;28;975;-67
2023/06/13 00:22:48;;;;;;;5.28;3.17;;;;;;;20.08;41.05;99121.84;348909;28;1242;-67
2023/06/13 00:23:03;;;;;;;5.72;3.47;;;;;;;20.04;42.90;99116.00;348497;28;1774;-68
2023/06/13 00:23:16;;;;;;;4.60;3.20;;;;;;;20.05;41.88;99119.47;348842;28;1062;-68
2023/06/13 00:23:29;;;;;;;5.65;3.20;;;;;;;20.05;41.41;99124.75;349234;28;1117;-67
2023/06/13 00:23:41;;;;;;;6.35;3.35;;;;;;;20.05;41.95;99119.47;350239;28;1126;-67
2023/06/13 00:23:53;;;;;;;6.10;3.28;;;;;;;20.03;42.33;99124.03;350573;28;1032;-67
2023/06/13 00:24:05;;;;;;;4.95;3.28;;;;;;;20.04;41.53;99120.41;350251;28;1066;-68
2023/06/13 00:24:18;;;;;;;4.50;3.17;;;;;;;20.06;41.55;99118.50;349715;28;1336;-67
2023/06/13 00:24:30;;;;;;;4.78;3.10;;;;;;;20.03;42.05;99124.84;349843;28;1716;-68
2023/06/13 00:24:43;;;;;;;5.93;3.30;;;;;;;20.02;41.66;99117.94;350023;28;1095;-67
2023/06/13 00:24:56;;;;;;;5.70;3.20;;;;;;;20.03;42.26;99116.94;350564;28;755;-68
2023/06/13 00:25:08;;;;;;;5.80;3.47;;;;;;;20.03;42.13;99122.22;351362;28;1121;-68
2023/06/13 00:25:20;;;;;;;6.03;3.55;;;;;;;20.04;41.92;99120.41;347637;28;7141;-68
2023/06/13 00:25:32;;;;;;;5.82;3.35;;;;;;;20.00;42.48;99117.22;348238;28;2648;-68
2023/06/13 00:25:44;;;;;;;5.30;3.33;;;;;;;19.96;42.91;99115.78;349802;28;2161;-67
2023/06/13 00:25:59;;;;;;;4.50;3.10;;;;;;;20.00;41.83;99121.63;349521;28;1534;-68
2023/06/13 00:26:11;;;;;;;3.83;3.20;;;;;;;20.01;41.61;99112.75;349826;28;1915;-68
2023/06/13 00:26:23;;;;;;;3.70;3.15;;;;;;;20.01;41.68;99110.94;350310;28;1039;-68
2023/06/13 00:26:35;;;;;;;4.63;3.20;;;;;;;19.99;42.31;99114.69;350408;28;1039;-67
2023/06/13 00:26:47;;;;;;;5.13;3.35;;;;;;;19.99;42.64;99114.69;350190;28;1405;-68
2023/06/13 00:26:59;;;;;;;6.25;3.47;;;;;;;19.97;42.47;99119.25;350175;28;1073;-68
2023/06/13 00:27:11;;;;;;;5.97;3.20;;;;;;;19.98;42.24;99113.00;349521;28;1797;-67
2023/06/13 00:27:23;;;;;;;5.88;3.40;;;;;;;19.99;41.96;99112.88;350088;28;2862;-68
2023/06/13 00:27:35;;;;;;;5.35;3.40;;;;;;;20.02;41.69;99111.78;348930;28;2279;-68
2023/06/13 00:27:47;;;;;;;4.95;3.17;;;;;;;20.03;41.30;99121.38;349595;28;5851;-67
2023/06/13 00:27:59;;;;;;;5.10;3.15;;;;;;;20.05;41.86;99114.19;348823;28;1074;-68
2023/06/13 00:28:11;;;;;;;4.78;3.17;;;;;;;20.06;41.36;99110.56;348988;28;1321;-67
2023/06/13 00:28:23;;;;;;;3.85;3.20;;;;;;;20.07;41.40;99112.28;349018;28;1074;-67
2023/06/13 00:28:35;;;;;;;4.00;3.35;;;;;;;20.04;42.46;99107.22;349184;28;1833;-68
2023/06/13 00:28:47;;;;;;;6.00;3.40;;;;;;;20.05;41.32;99109.75;349565;28;2094;-68
2023/06/13 00:28:59;;;;;;;7.40;3.40;;;;;;;20.04;41.22;99117.78;348728;28;1070;-68
2023/06/13 00:29:12;;;;;;;7.32;3.30;;;;;;;20.03;41.25;99116.13;349409;28;2035;-67
2023/06/13 00:29:24;;;;;;;5.63;3.30;;;;;;;20.04;41.22;99112.50;349025;28;1096;-67
2023/06/13 00:29:36;;;;;;;4.32;3.22;;;;;;;20.03;42.01;99111.66;347584;28;2074;-68
2023/06/13 00:29:48;;;;;;;4.30;3.20;;;;;;;20.03;41.98;99113.47;348755;28;1846;-68
2023/06/13 00:30:00;;;;;;;4.68;3.20;;;;;;;20.01;42.26;99115.41;349122;28;1758;-67
2023/06/13 00:30:12;;;;;;;4.75;3.28;;;;;;;20.01;42.05;99118.03;349101;28;1339;-68
2023/06/13 00:30:24;;;;;;;4.75;3.45;;;;;;;20.00;41.35;99116.34;347092;28;1481;-67
2023/06/13 00:30:36;;;;;;;4.57;3.45;;;;;;;19.99;41.43;99119.97;347634;28;1015;-68
2023/06/13 00:30:48;;;;;;;4.47;3.33;;;;;;;20.00;41.19;99116.34;347029;28;2015;-67
2023/06/13 00:31:00;;;;;;;3.78;3.20;;;;;;;20.01;41.21;99116.22;347482;28;1931;-67
2023/06/13 00:31:12;;;;;;;5.07;3.25;;;;;;;20.00;41.23;99111.06;346100;28;1055;-67
2023/06/13 00:31:28;;;;;;;4.82;3.30;;;;;;;20.00;42.05;99111.06;346247;28;2041;-67
2023/06/13 00:31:42;;;;;;;3.80;3.15;;;;;;;19.98;42.45;99113.00;347165;28;1577;-67
2023/06/13 00:31:54;;;;;;;4.07;3.20;;;;;;;19.96;42.08;99115.78;347455;28;1063;-68
2023/06/13 00:32:07;;;;;;;4.95;3.30;;;;;;;19.97;41.80;99113.97;347706;28;1810;-68
2023/06/13 00:32:19;;;;;;;4.30;3.15;;;;;;;19.97;41.90;99113.97;346195;28;1303;-68
2023/06/13 00:32:31;;;;;;;4.18;3.15;;;;;;;19.98;41.46;99113.00;347496;28;1286;-67
2023/06/13 00:32:44;;;;;;;4.50;3.50;;;;;;;19.93;43.22;99121.28;347311;28;1623;-67
2023/06/13 00:32:56;;;;;;;4.55;3.40;;;;;;;19.95;41.75;99114.91;347963;28;1180;-67
2023/06/13 00:33:10;;;;;;;4.13;3.00;;;;;;;19.94;42.23;99118.53;347841;28;1033;-67
2023/06/13 00:33:24;;;;;;;4.05;2.95;;;;;;;19.94;42.34;99110.63;348975;28;1078;-68
2023/06/13 00:33:37;;;;;;;3.78;3.15;;;;;;;19.95;41.90;99114.91;347063;28;1307;-67
2023/06/13 00:33:50;;;;;;;3.67;3.17;;;;;;;19.93;42.04;99116.84;347492;28;1095;-67
2023/06/13 00:34:02;;;;;;;4.43;3.28;;;;;;;19.93;41.62;99119.47;347601;28;1077;-68
2023/06/13 00:34:14;;;;;;;4.90;3.33;;;;;;;19.91;41.40;99113.50;347712;28;1156;-67
2023/06/13 00:34:27;;;;;;;5.05;3.25;;;;;;;19.92;41.61;99120.47;348692;28;1144;-67
2023/06/13 00:34:40;;;;;;;5.30;3.15;;;;;;;19.94;41.31;99110.63;348889;28;1231;-67
2023/06/13 00:34:52;;;;;;;4.88;3.10;;;;;;;19.91;41.90;99118.75;348782;28;1047;-67
2023/06/13 00:35:04;;;;;;;4.25;3.15;;;;;;;19.92;42.65;99112.53;348516;28;1095;-68
2023/06/13 00:35:16;;;;;;;3.90;3.03;;;;;;;19.94;41.55;99123.81;348395;28;3208;-67
2023/06/13 00:35:28;;;;;;;5.78;3.22;;;;;;;19.94;41.50;99118.53;348966;28;1275;-68
2023/06/13 00:35:40;;;;;;;6.10;3.30;;;;;;;19.94;41.63;99117.66;349172;28;1333;-67
2023/06/13 00:35:52;;;;;;;6.35;3.10;;;;;;;19.94;41.62;99123.81;350252;28;1485;-68
2023/06/13 00:36:04;;;;;;;5.95;3.03;;;;;;;19.94;42.30;99117.66;349177;28;1175;-67
2023/06/13 00:36:19;;;;;;;5.40;3.03;;;;;;;19.93;41.73;99116.00;349152;28;1765;-67
2023/06/13 00:36:34;;;;;;;4.57;3.10;;;;;;;19.95;41.63;99112.28;347446;28;1583;-68
2023/06/13 00:36:46;;;;;;;3.53;3.00;;;;;;;19.95;41.85;99114.91;348723;28;1291;-68
2023/06/13 00:36:59;;;;;;;4.25;3.13;;;;;;;19.95;41.57;99111.44;347641;28;1622;-68
2023/06/13 00:37:12;;;;;;;4.63;3.20;;;;;;;19.94;41.32;99115.91;347661;28;1171;-68
2023/06/13 00:37:29;;;;;;;4.60;3.05;;;;;;;19.94;41.96;99112.41;347756;28;1037;-67
2023/06/13 00:37:41;;;;;;;4.43;3.00;;;;;;;19.94;41.62;99115.91;347934;28;1620;-68
2023/06/13 00:37:56;;;;;;;4.78;3.22;;;;;;;19.95;41.43;99119.38;347785;28;1039;-67
2023/06/13 00:38:08;;;;;;;4.83;3.40;;;;;;;19.95;41.57;99119.38;347610;28;1056;-67
2023/06/13 00:38:22;;;;;;;4.13;3.30;;;;;;;19.94;41.83;99112.41;347389;28;1297;-67
2023/06/13 00:38:34;;;;;;;4.28;3.20;;;;;;;19.91;41.96;99121.41;348138;28;1812;-67
2023/06/13 00:38:49;;;;;;;4.38;3.05;;;;;;;19.88;42.30;99115.53;348512;28;1330;-68
2023/06/13 00:39:02;;;;;;;5.35;3.30;;;;;;;19.87;42.17;99112.06;349162;28;1063;-68
2023/06/13 00:39:14;;;;;;;5.47;3.35;;;;;;;19.88;41.55;99108.47;347541;28;1170;-68
2023/06/13 00:39:27;;;;;;;4.50;3.10;;;;;;;19.90;41.53;99118.88;347959;28;932;-68
2023/06/13 00:39:39;;;;;;;4.68;3.10;;;;;;;19.89;41.60;99110.13;347764;28;1110;-67
2023/06/13 00:39:51;;;;;;;5.03;3.15;;;;;;;19.90;41.43;99117.09;347735;28;1051;-67
2023/06/13 00:40:05;;;;;;;5.68;3.40;;;;;;;19.90;41.55;99111.81;349131;28;1276;-67
2023/06/13 00:40:17;;;;;;;5.90;3.53;;;;;;;19.91;41.49;99116.13;347762;28;1072;-67
2023/06/13 00:40:29;;;;;;;5.38;3.30;;;;;;;19.85;42.44;99108.69;347704;28;1066;-67
2023/06/13 00:40:41;;;;;;;3.95;3.13;;;;;;;19.85;42.15;99119.25;347524;28;1268;-67
2023/06/13 00:40:53;;;;;;;4.15;3.28;;;;;;;19.86;41.63;99107.75;347605;28;1254;-67
2023/06/13 00:41:05;;;;;;;4.20;3.28;;;;;;;19.89;41.54;99117.22;347719;28;1267;-67
2023/06/13 00:41:18;;;;;;;4.25;3.13;;;;;;;19.87;41.38;99112.06;347974;28;1162;-68
2023/06/13 00:41:32;;;;;;;4.38;3.13;;;;;;;19.87;41.23;99109.41;348800;28;1158;-68
2023/06/13 00:41:45;;;;;;;4.18;3.40;;;;;;;19.86;41.71;99110.41;348731;28;1780;-67
2023/06/13 00:42:00;;;;;;;3.78;3.38;;;;;;;19.87;41.53;99117.34;348911;28;1027;-67
2023/06/13 00:42:12;;;;;;;3.85;3.10;;;;;;;19.83;42.48;99109.78;348962;28;1009;-68
2023/06/13 00:42:24;;;;;;;4.03;2.97;;;;;;;19.84;42.08;99106.19;349086;28;1079;-67
2023/06/13 00:42:36;;;;;;;4.60;3.10;;;;;;;19.84;42.05;99108.81;348905;28;1161;-67
2023/06/13 00:42:52;;;;;;;4.28;3.20;;;;;;;19.82;42.31;99108.97;349632;28;1597;-68
2023/06/13 00:43:04;;;;;;;3.97;3.20;;;;;;;19.83;41.82;99108.00;350487;28;1089;-68
2023/06/13 00:43:17;;;;;;;4.07;3.20;;;;;;;19.82;42.02;99116.00;350279;28;1062;-67
2023/06/13 00:43:32;;;;;;;4.53;3.10;;;;;;;19.80;42.47;99110.88;348766;28;1019;-68
2023/06/13 00:43:44;;;;;;;4.30;3.00;;;;;;;19.81;41.89;99107.28;349073;28;1038;-67
2023/06/13 00:43:57;;;;;;;4.38;3.20;;;;;;;19.78;41.81;99104.91;348847;28;1906;-67
2023/06/13 00:44:09;;;;;;;4.53;3.35;;;;;;;19.80;41.78;99113.53;348758;28;1661;-68
2023/06/13 00:44:21;;;;;;;4.80;3.38;;;;;;;19.80;42.00;99113.53;348929;28;1118;-67
2023/06/13 00:44:33;;;;;;;4.32;3.20;;;;;;;19.82;41.45;99105.47;349165;28;1101;-67
2023/06/13 00:44:47;;;;;;;4.35;3.05;;;;;;;19.82;41.32;99111.59;349159;28;1313;-68
2023/06/13 00:45:22;;;;;;;5.30;3.20;;;;;;;19.83;41.38;99110.63;349617;28;1208;-67
2023/06/13 00:45:34;;;;;;;3.20;2.90;;;;;;;19.82;41.49;99108.97;350601;28;1062;-68
2023/06/13 00:45:46;;;;;;;4.25;3.00;;;;;;;19.82;41.19;99114.25;350227;28;1043;-67
2023/06/13 00:46:00;;;;;;;4.72;3.10;;;;;;;19.79;41.71;99108.38;350535;28;1065;-67
2023/06/13 00:46:18;;;;;;;4.60;3.05;;;;;;;19.81;41.23;99109.06;350370;28;1284;-67
2023/06/13 00:46:34;;;;;;;5.18;3.03;;;;;;;19.81;41.58;99111.72;350458;28;878;-67
2023/06/13 00:46:46;;;;;;;5.90;3.30;;;;;;;19.82;41.56;99108.97;349291;28;1157;-67
2023/06/13 00:47:00;;;;;;;5.18;3.35;;;;;;;19.81;42.25;99101.16;349039;28;1238;-67
2023/06/13 00:47:13;;;;;;;5.22;3.50;;;;;;;19.82;41.94;99103.69;349196;28;1100;-67
2023/06/13 00:47:26;;;;;;;5.18;3.28;;;;;;;19.82;41.62;99102.84;348959;28;1062;-68
2023/06/13 00:47:38;;;;;;;5.05;3.20;;;;;;;19.81;42.07;99117.00;350005;28;1210;-67
2023/06/13 00:47:57;;;;;;;4.93;3.22;;;;;;;19.76;43.13;99104.19;350520;28;1194;-67
2023/06/13 00:48:09;;;;;;;4.43;3.15;;;;;;;19.78;41.87;99107.53;350404;28;1227;-67
2023/06/13 00:48:22;;;;;;;4.20;3.40;;;;;;;19.79;41.85;99114.47;350388;28;1168;-68
2023/06/13 00:48:37;;;;;;;4.53;3.40;;;;;;;19.80;41.59;99110.88;350328;28;1094;-68
2023/06/13 00:48:50;;;;;;;4.15;3.28;;;;;;;19.78;41.89;99112.81;350590;28;984;-67
2023/06/13 00:49:04;;;;;;;4.13;3.10;;;;;;;19.77;41.52;99105.00;348696;28;1623;-67
2023/06/13 00:49:16;;;;;;;4.00;3.20;;;;;;;19.77;41.68;99111.13;348623;28;1012;-68
2023/06/13 00:49:28;;;;;;;4.15;3.10;;;;;;;19.77;41.78;99108.47;348713;28;1177;-67
2023/06/13 00:49:41;;;;;;;4.32;3.13;;;;;;;19.76;41.79;99114.72;349060;28;1434;-68
2023/06/13 00:49:54;;;;;;;4.32;3.20;;;;;;;19.76;41.89;99109.44;348004;28;1912;-67
2023/06/13 00:50:06;;;;;;;4.85;3.22;;;;;;;19.75;42.14;99107.75;347862;28;1042;-67
2023/06/13 00:50:19;;;;;;;4.70;3.05;;;;;;;19.74;41.61;99108.75;347546;28;1058;-67
2023/06/13 00:50:34;;;;;;;5.60;3.20;;;;;;;19.74;41.67;99108.75;347549;28;1138;-67
2023/06/13 00:50:47;;;;;;;4.82;3.03;;;;;;;19.70;42.42;99104.63;347349;28;960;-68
2023/06/13 00:51:02;;;;;;;5.53;3.10;;;;;;;19.68;42.63;99102.13;347669;28;1056;-67
2023/06/13 00:51:16;;;;;;;5.65;3.20;;;;;;;19.68;42.61;99102.13;347471;28;1126;-67
2023/06/13 00:51:31;;;;;;;3.47;3.00;;;;;;;19.68;42.43;99101.25;347332;28;1834;-67
2023/06/13 00:51:44;;;;;;;3.90;3.00;;;;;;;19.70;42.18;99109.91;348964;28;1074;-67
2023/06/13 00:52:04;;;;;;;4.97;3.10;;;;;;;19.69;43.26;99102.94;349061;28;1242;-67
2023/06/13 00:52:16;;;;;;;4.65;3.17;;;;;;;19.67;42.45;99110.13;348935;28;1034;-67
2023/06/13 00:52:29;;;;;;;4.53;3.28;;;;;;;19.65;42.42;99104.16;349119;28;1043;-68
2023/06/13 00:52:41;;;;;;;5.03;3.30;;;;;;;19.65;42.13;99101.50;347640;28;1178;-67
2023/06/13 00:52:56;;;;;;;5.38;3.45;;;;;;;19.67;42.48;99107.50;347497;28;1117;-68
2023/06/13 00:53:11;;;;;;;4.30;3.50;;;;;;;19.65;42.25;99106.78;348266;28;1510;-67
2023/06/13 00:53:29;;;;;;;4.10;3.30;;;;;;;19.64;42.43;99100.69;347256;28;1031;-67
2023/06/13 00:53:46;;;;;;;3.95;3.05;;;;;;;19.64;42.25;99105.97;347726;28;1341;-67
2023/06/13 00:54:00;;;;;;;4.05;3.20;;;;;;;19.65;42.09;99107.63;347592;28;1166;-68
2023/06/13 00:54:16;;;;;;;4.45;3.13;;;;;;;19.62;42.27;99096.47;347536;28;1169;-68
2023/06/13 00:54:29;;;;;;;4.07;2.90;;;;;;;19.62;42.36;99107.00;347762;28;1037;-67
2023/06/13 00:54:41;;;;;;;3.65;3.00;;;;;;;19.61;42.13;99100.06;348822;28;1832;-68
2023/06/13 00:54:53;;;;;;;3.90;2.95;;;;;;;19.61;42.89;99100.06;349095;28;1301;-67
2023/06/13 00:55:06;;;;;;;4.05;3.00;;;;;;;19.62;42.59;99102.59;348925;28;1109;-67
2023/06/13 00:55:18;;;;;;;4.93;3.10;;;;;;;19.61;42.51;99105.34;348884;28;1311;-68
2023/06/13 00:55:30;;;;;;;6.90;3.22;;;;;;;19.59;42.58;99102.81;347937;28;1049;-67
2023/06/13 00:55:44;;;;;;;8.60;3.30;;;;;;;19.56;41.80;99096.00;347831;28;1563;-67
2023/06/13 00:55:58;;;;;;;7.22;3.20;;;;;;;19.59;41.96;99099.34;348998;28;1199;-67
2023/06/13 00:56:10;;;;;;;3.75;3.10;;;;;;;19.62;41.81;99101.75;348144;28;790;-67
2023/06/13 00:56:24;;;;;;;3.90;3.13;;;;;;;19.60;42.39;99098.38;346803;28;2105;-68
2023/06/13 00:56:37;;;;;;;4.28;3.25;;;;;;;19.59;42.10;99104.63;344999;28;1043;-68
2023/06/13 00:56:49;;;;;;;4.53;3.30;;;;;;;19.61;41.99;99100.06;343459;28;1105;-67
2023/06/13 00:57:02;;;;;;;4.20;3.17;;;;;;;19.60;42.23;99095.75;343673;28;1028;-68
2023/06/13 00:57:15;;;;;;;4.85;3.30;;;;;;;19.63;41.90;99098.16;343607;28;1182;-67
2023/06/13 00:57:27;;;;;;;5.60;3.13;;;;;;;19.62;41.88;99099.09;343646;28;1272;-67
2023/06/13 00:57:40;;;;;;;5.47;3.25;;;;;;;19.62;42.00;99102.59;344778;28;1779;-68
2023/06/13 00:57:55;;;;;;;5.03;3.10;;;;;;;19.58;42.27;99102.94;344996;28;1095;-67
2023/06/13 00:58:07;;;;;;;4.13;2.90;;;;;;;19.56;42.12;99098.66;346369;28;1090;-67
2023/06/13 00:58:20;;;;;;;4.22;3.05;;;;;;;19.54;42.66;99105.00;347474;28;1051;-67
2023/06/13 00:58:31;;;;;;;4.18;3.17;;;;;;;19.53;42.86;99098.03;347944;28;1074;-68
2023/06/13 00:58:43;;;;;;;4.75;3.20;;;;;;;19.54;42.59;99100.56;349292;28;1312;-68
2023/06/13 00:59:01;;;;;;;4.57;3.10;;;;;;;19.54;41.91;99105.00;349262;28;1104;-68
2023/06/13 00:59:14;;;;;;;4.53;3.30;;;;;;;19.54;42.27;99095.28;348721;28;902;-68
2023/06/13 00:59:26;;;;;;;4.60;3.30;;;;;;;19.55;42.11;99099.59;347822;28;1006;-67
2023/06/13 00:59:38;;;;;;;4.40;3.00;;;;;;;19.53;42.21;99101.50;347905;28;1938;-68
2023/06/13 00:59:50;;;;;;;3.97;3.10;;;;;;;19.54;42.21;99095.28;348726;28;944;-68
2023/06/13 01:00:04;;;;;;;4.20;3.17;;;;;;;19.51;42.18;99095.50;348854;28;1023;-67
2023/06/13 01:00:16;;;;;;;4.35;3.00;;;;;;;19.54;42.03;99099.72;349038;28;1015;-67
2023/06/13 01:00:30;;;;;;;5.28;3.17;;;;;;;19.52;42.89;99099.84;348864;28;1018;-67
2023/06/13 01:00:44;;;;;;;5.22;3.47;;;;;;;19.55;42.03;99096.94;349119;28;1014;-67
2023/06/13 01:00:57;;;;;;;4.30;3.35;;;;;;;19.52;42.47;99102.47;348991;28;1053;-68
2023/06/13 01:01:09;;;;;;;4.70;3.45;;;;;;;19.51;42.37;99094.69;347353;28;1243;-67
2023/06/13 01:01:22;;;;;;;4.75;3.40;;;;;;;19.50;42.28;99093.84;347194;28;1051;-67
2023/06/13 01:01:36;;;;;;;4.43;3.38;;;;;;;19.48;43.09;99100.22;347469;28;1387;-67
2023/06/13 01:01:48;;;;;;;3.72;3.10;;;;;;;19.46;42.76;99092.41;347781;28;1050;-67
2023/06/13 01:02:00;;;;;;;4.30;3.33;;;;;;;19.42;42.57;99100.66;347854;28;1068;-67
2023/06/13 01:02:15;;;;;;;5.32;3.33;;;;;;;19.44;42.43;99096.13;347439;28;1279;-68
2023/06/13 01:02:27;;;;;;;5.32;3.15;;;;;;;19.43;42.29;99092.66;347439;28;1109;-67
2023/06/13 01:02:40;;;;;;;4.97;3.17;;;;;;;19.45;42.46;99096.00;346481;28;1176;-68
2023/06/13 01:02:57;;;;;;;3.78;3.22;;;;;;;19.47;42.23;99093.25;348298;28;1572;-67
2023/06/13 01:03:12;;;;;;;4.90;3.20;;;;;;;19.46;42.15;99097.69;348925;28;1095;-67
2023/06/13 01:03:25;;;;;;;5.60;3.30;;;;;;;19.42;42.05;99090.97;349046;28;1013;-67
2023/06/13 01:03:39;;;;;;;4.30;3.20;;;;;;;19.44;42.10;99094.34;348759;28;1402;-67
2023/06/13 01:03:52;;;;;;;3.67;3.08;;;;;;;19.41;42.56;99089.28;348938;28;1193;-67